createdAt,value
2022-12-01T00:01:59.349Z,3.89
2022-12-01T00:04:25.951Z,3.88
2022-12-01T00:06:52.626Z,3.89
2022-12-01T00:09:20.652Z,3.88
2022-12-01T00:11:47.469Z,3.86
2022-12-01T00:14:14.054Z,3.85
2022-12-01T00:16:40.652Z,3.84
2022-12-01T00:19:07.439Z,3.81
2022-12-01T00:21:34.022Z,3.80
2022-12-01T00:24:00.550Z,3.80
2022-12-01T00:26:28.688Z,3.79
2022-12-01T00:28:56.664Z,3.77
2022-12-01T00:31:24.109Z,3.77
2022-12-01T00:33:50.954Z,3.77
2022-12-01T00:36:17.535Z,3.76
2022-12-01T00:38:44.083Z,3.75
2022-12-01T00:41:10.955Z,3.74
2022-12-01T00:43:38.934Z,3.72
2022-12-01T00:46:05.700Z,3.70
2022-12-01T00:48:32.392Z,3.68
2022-12-01T00:50:59.069Z,3.68
2022-12-01T00:53:25.635Z,3.67
2022-12-01T00:55:52.237Z,3.65
2022-12-01T00:58:18.812Z,3.64
2022-12-01T01:00:46.703Z,3.66
2022-12-01T01:03:13.471Z,3.63
2022-12-01T01:05:42.158Z,3.64
2022-12-01T01:08:09.779Z,3.62
2022-12-01T01:10:38.096Z,3.60
2022-12-01T01:13:05.068Z,3.59
2022-12-01T01:15:31.567Z,3.58
2022-12-01T01:17:59.651Z,3.57
2022-12-01T01:20:26.369Z,3.58
2022-12-01T01:22:53.096Z,3.58
2022-12-01T01:25:19.630Z,3.56
2022-12-01T01:27:46.203Z,3.57
2022-12-01T01:30:15.490Z,3.54
2022-12-01T01:32:42.104Z,3.53
2022-12-01T01:35:10.257Z,3.53
2022-12-01T01:37:36.902Z,3.50
2022-12-01T01:40:04.334Z,3.51
2022-12-01T01:42:30.860Z,3.52
2022-12-01T01:44:58.610Z,3.49
2022-12-01T01:47:27.927Z,3.49
2022-12-01T01:49:57.202Z,3.48
2022-12-01T01:52:25.387Z,3.47
2022-12-01T01:54:55.538Z,3.44
2022-12-01T01:57:26.733Z,3.46
2022-12-01T01:59:58.050Z,3.45
2022-12-01T02:02:24.670Z,3.43
2022-12-01T02:04:56.834Z,3.42
2022-12-01T02:07:24.798Z,3.40
2022-12-01T02:09:52.669Z,3.40
2022-12-01T02:12:34.296Z,3.39
2022-12-01T02:15:12.947Z,3.39
2022-12-01T02:17:47.745Z,3.36
2022-12-01T02:20:45.458Z,3.35
2022-12-01T02:23:52.854Z,3.37
2022-12-01T02:26:36.290Z,3.35
2022-12-01T02:29:45.581Z,3.32
2022-12-01T02:32:21.890Z,3.31
2022-12-01T02:34:57.494Z,3.30
2022-12-01T02:37:31.813Z,3.27
2022-12-01T02:40:05.839Z,3.27
2022-12-01T02:42:39.574Z,3.27
2022-12-01T02:45:13.415Z,3.27
2022-12-01T02:47:43.749Z,3.26
2022-12-01T02:50:11.687Z,3.21
2022-12-01T02:52:40.042Z,3.21
2022-12-01T02:55:07.176Z,3.20
2022-12-01T02:57:33.717Z,3.20
2022-12-01T03:00:00.993Z,3.20
2022-12-01T03:02:35.432Z,3.21
2022-12-01T03:05:07.970Z,3.19
2022-12-01T03:07:45.847Z,3.20
2022-12-01T03:10:21.525Z,3.18
2022-12-01T03:13:00.302Z,3.14
2022-12-01T03:15:34.002Z,3.13
2022-12-01T03:18:09.399Z,3.11
2022-12-01T03:20:42.555Z,3.11
2022-12-01T03:23:13.402Z,3.10
2022-12-01T03:25:44.024Z,3.09
2022-12-01T03:28:21.304Z,3.09
2022-12-01T03:30:52.555Z,3.08
2022-12-01T03:33:25.345Z,3.07
2022-12-01T03:35:58.331Z,3.04
2022-12-01T03:38:26.793Z,3.02
2022-12-01T03:40:58.137Z,3.01
2022-12-01T03:43:28.107Z,2.96
2022-12-01T03:45:58.661Z,2.95
2022-12-01T03:48:26.780Z,2.93
2022-12-01T03:51:01.733Z,2.91
2022-12-01T03:53:38.008Z,2.90
2022-12-01T03:56:07.309Z,2.86
2022-12-01T03:58:37.920Z,2.84
2022-12-01T04:01:05.428Z,2.84
2022-12-01T04:03:32.012Z,2.82
2022-12-01T04:06:00.588Z,2.80
2022-12-01T04:08:27.453Z,2.74
2022-12-01T04:10:53.934Z,2.75
2022-12-01T04:13:20.496Z,2.73
2022-12-01T04:15:47.080Z,2.74
2022-12-01T04:18:13.683Z,2.73
2022-12-01T04:20:40.234Z,2.73
2022-12-01T04:23:08.108Z,2.72
2022-12-01T04:25:34.597Z,2.69
2022-12-01T04:28:01.160Z,2.68
2022-12-01T04:30:27.694Z,2.68
2022-12-01T04:32:54.262Z,2.66
2022-12-01T04:35:20.954Z,2.64
2022-12-01T04:37:47.445Z,2.66
2022-12-01T04:40:15.642Z,2.64
2022-12-01T04:42:42.190Z,2.62
2022-12-01T04:45:10.035Z,2.60
2022-12-01T04:47:36.724Z,2.61
2022-12-01T04:50:03.553Z,2.63
2022-12-01T04:52:35.009Z,2.60
2022-12-01T04:55:02.496Z,2.58
2022-12-01T04:57:30.425Z,2.53
2022-12-01T04:59:57.083Z,2.55
2022-12-01T05:02:23.705Z,2.53
2022-12-01T05:04:50.244Z,2.54
2022-12-01T05:07:16.897Z,2.51
2022-12-01T05:09:43.438Z,2.49
2022-12-01T05:12:09.984Z,2.50
2022-12-01T05:14:37.867Z,2.49
2022-12-01T05:17:04.433Z,2.50
2022-12-01T05:19:30.974Z,2.48
2022-12-01T05:21:57.662Z,2.46
2022-12-01T05:24:24.356Z,2.44
2022-12-01T05:26:51.093Z,2.42
2022-12-01T05:29:17.881Z,2.41
2022-12-01T05:31:46.675Z,2.39
2022-12-01T05:34:13.721Z,2.37
2022-12-01T05:36:40.285Z,2.36
2022-12-01T05:39:07.025Z,2.36
2022-12-01T05:41:33.596Z,2.32
2022-12-01T05:44:00.194Z,2.31
2022-12-01T05:46:26.830Z,2.31
2022-12-01T05:48:54.811Z,2.31
2022-12-01T05:51:21.542Z,2.28
2022-12-01T05:53:48.129Z,2.29
2022-12-01T05:56:14.866Z,2.27
2022-12-01T05:58:41.434Z,2.27
2022-12-01T06:01:08.185Z,2.27
2022-12-01T06:03:34.896Z,2.25
2022-12-01T06:06:02.848Z,2.24
2022-12-01T06:08:29.565Z,2.23
2022-12-01T06:10:56.265Z,2.24
2022-12-01T06:13:22.848Z,2.21
2022-12-01T06:15:56.994Z,2.20
2022-12-01T06:18:24.321Z,2.19
2022-12-01T06:20:51.110Z,2.19
2022-12-01T06:23:19.050Z,2.20
2022-12-01T06:25:45.586Z,2.17
2022-12-01T06:28:12.158Z,2.17
2022-12-01T06:30:38.751Z,2.15
2022-12-01T06:33:05.603Z,2.11
2022-12-01T06:35:32.329Z,2.09
2022-12-01T06:37:59.116Z,2.10
2022-12-01T06:40:28.166Z,2.10
2022-12-01T06:42:54.834Z,2.10
2022-12-01T06:45:21.340Z,2.07
2022-12-01T06:47:48.107Z,2.06
2022-12-01T06:50:14.866Z,2.05
2022-12-01T06:52:41.410Z,2.05
2022-12-01T06:55:08.949Z,2.03
2022-12-01T06:57:37.048Z,2.00
2022-12-01T07:00:04.750Z,2.01
2022-12-01T07:02:31.719Z,1.98
2022-12-01T07:04:58.453Z,1.98
2022-12-01T07:07:25.035Z,1.95
2022-12-01T07:09:51.979Z,1.92
2022-12-01T07:12:18.614Z,1.93
2022-12-01T07:14:46.695Z,1.91
2022-12-01T07:17:13.197Z,1.91
2022-12-01T07:19:39.778Z,1.90
2022-12-01T07:22:06.285Z,1.88
2022-12-01T07:24:32.829Z,1.85
2022-12-01T07:26:59.458Z,1.84
2022-12-01T07:29:25.992Z,1.85
2022-12-01T07:31:53.891Z,1.85
2022-12-01T07:34:20.484Z,1.85
2022-12-01T07:36:47.044Z,1.84
2022-12-01T07:39:13.573Z,1.81
2022-12-01T07:41:40.077Z,1.81
2022-12-01T07:44:07.129Z,1.83
2022-12-01T07:46:33.729Z,1.80
2022-12-01T07:49:05.081Z,1.81
2022-12-01T07:51:31.727Z,1.82
2022-12-01T07:54:02.299Z,1.83
2022-12-01T07:56:29.153Z,1.83
2022-12-01T07:58:55.768Z,1.85
2022-12-01T08:01:23.841Z,1.86
2022-12-01T08:03:51.915Z,1.87
2022-12-01T08:06:20.319Z,1.88
2022-12-01T08:08:47.402Z,1.88
2022-12-01T08:11:16.114Z,1.89
2022-12-01T08:13:43.652Z,1.90
2022-12-01T08:16:12.997Z,1.93
2022-12-01T08:18:40.853Z,1.95
2022-12-01T08:21:09.194Z,1.99
2022-12-01T08:23:37.193Z,1.99
2022-12-01T08:26:05.755Z,1.99
2022-12-01T08:28:35.184Z,2.01
2022-12-01T08:31:07.619Z,1.98
2022-12-01T08:33:34.171Z,1.99
2022-12-01T08:36:02.007Z,2.00
2022-12-01T08:38:28.548Z,2.05
2022-12-01T08:41:00.201Z,2.05
2022-12-01T08:43:56.002Z,2.07
2022-12-01T08:46:14.126Z,2.06
2022-12-01T08:48:40.904Z,2.05
2022-12-01T08:51:09.591Z,1.99
2022-12-01T08:53:42.564Z,1.98
2022-12-01T08:56:16.512Z,1.97
2022-12-01T08:58:43.350Z,1.95
2022-12-01T09:01:12.855Z,1.89
2022-12-01T09:03:39.978Z,1.88
2022-12-01T09:06:08.759Z,1.85
2022-12-01T09:08:36.458Z,1.83
2022-12-01T09:11:04.778Z,1.81
2022-12-01T09:13:34.424Z,1.84
2022-12-01T09:16:04.383Z,1.85
2022-12-01T09:18:31.208Z,1.88
2022-12-01T09:20:58.658Z,1.86
2022-12-01T09:23:26.246Z,1.85
2022-12-01T09:25:53.694Z,1.87
2022-12-01T09:28:20.378Z,1.85
2022-12-01T09:30:48.271Z,1.88
2022-12-01T09:33:15.037Z,1.95
2022-12-01T09:35:41.600Z,1.97
2022-12-01T09:38:08.139Z,2.01
2022-12-01T09:40:37.165Z,2.11
2022-12-01T09:43:05.842Z,2.15
2022-12-01T09:45:36.657Z,2.17
2022-12-01T09:48:06.513Z,2.22
2022-12-01T09:50:34.237Z,2.28
2022-12-01T09:53:06.249Z,2.32
2022-12-01T09:55:34.188Z,2.30
2022-12-01T09:58:03.378Z,2.35
2022-12-01T10:00:32.841Z,2.42
2022-12-01T10:03:10.172Z,2.47
2022-12-01T10:06:10.215Z,2.49
2022-12-01T10:08:34.810Z,2.59
2022-12-01T10:11:08.405Z,2.59
2022-12-01T10:13:35.002Z,2.64
2022-12-01T10:16:09.591Z,2.67
2022-12-01T10:18:49.579Z,2.70
2022-12-01T10:21:28.118Z,2.74
2022-12-01T10:24:09.550Z,2.75
2022-12-01T10:26:49.623Z,2.67
2022-12-01T10:29:26.697Z,2.62
2022-12-01T10:31:54.721Z,2.70
2022-12-01T10:34:25.116Z,2.66
2022-12-01T10:36:51.713Z,2.64
2022-12-01T10:39:22.541Z,2.62
2022-12-01T10:41:50.031Z,2.56
2022-12-01T10:44:18.334Z,2.58
2022-12-01T10:46:49.290Z,2.56
2022-12-01T10:49:17.398Z,2.65
2022-12-01T10:51:52.581Z,2.67
2022-12-01T10:54:20.816Z,2.66
2022-12-01T10:56:49.014Z,2.64
2022-12-01T10:59:26.850Z,2.66
2022-12-01T11:01:54.485Z,2.65
2022-12-01T11:04:40.192Z,2.64
2022-12-01T11:07:15.886Z,2.65
2022-12-01T11:09:46.050Z,2.67
2022-12-01T11:12:16.589Z,2.65
2022-12-01T11:14:45.617Z,2.68
2022-12-01T11:17:25.078Z,2.67
2022-12-01T11:19:51.927Z,2.71
2022-12-01T11:22:23.237Z,2.72
2022-12-01T11:25:01.168Z,2.71
2022-12-01T11:27:30.533Z,2.67
2022-12-01T11:29:59.990Z,2.68
2022-12-01T11:32:29.037Z,2.67
2022-12-01T11:34:58.666Z,2.66
2022-12-01T11:37:36.514Z,2.65
2022-12-01T11:40:13.463Z,2.67
2022-12-01T11:42:40.708Z,2.71
2022-12-01T11:45:23.687Z,2.72
2022-12-01T11:48:02.751Z,2.69
2022-12-01T11:50:32.549Z,2.65
2022-12-01T11:53:01.295Z,2.67
2022-12-01T11:55:29.251Z,2.66
2022-12-01T11:58:02.751Z,2.65
2022-12-01T12:00:33.876Z,2.67
2022-12-01T12:03:18.586Z,2.69
2022-12-01T12:09:11.343Z,2.66
2022-12-01T12:11:45.016Z,2.66
2022-12-01T12:14:31.430Z,2.65
2022-12-01T12:17:15.008Z,2.74
2022-12-01T12:20:09.806Z,2.76
2022-12-01T12:22:46.900Z,2.71
2022-12-01T12:25:27.574Z,2.73
2022-12-01T12:28:13.426Z,2.75
2022-12-01T12:30:46.861Z,2.78
2022-12-01T12:33:48.865Z,2.78
2022-12-01T12:36:27.443Z,2.80
2022-12-01T12:39:05.808Z,2.87
2022-12-01T12:41:38.682Z,2.88
2022-12-01T12:44:33.811Z,2.83
2022-12-01T12:47:14.521Z,2.74
2022-12-01T12:49:47.590Z,2.76
2022-12-01T12:52:18.071Z,2.78
2022-12-01T12:54:50.719Z,2.78
2022-12-01T12:57:26.183Z,2.79
2022-12-01T12:59:57.508Z,2.78
2022-12-01T13:02:31.728Z,2.76
2022-12-01T13:05:04.722Z,2.78
2022-12-01T13:07:39.247Z,2.82
2022-12-01T13:10:16.127Z,2.89
2022-12-01T13:12:53.645Z,2.94
2022-12-01T13:15:21.887Z,2.98
2022-12-01T13:17:51.287Z,3.00
2022-12-01T13:20:22.053Z,2.96
2022-12-01T13:22:50.116Z,3.00
2022-12-01T13:25:26.969Z,3.05
2022-12-01T13:27:56.961Z,3.10
2022-12-01T13:30:26.937Z,3.16
2022-12-01T13:32:59.672Z,3.21
2022-12-01T13:35:29.385Z,3.22
2022-12-01T13:38:12.245Z,3.24
2022-12-01T13:40:39.315Z,3.21
2022-12-01T13:43:17.400Z,3.20
2022-12-01T13:45:44.137Z,3.15
2022-12-01T13:48:28.335Z,3.15
2022-12-01T13:50:58.813Z,3.18
2022-12-01T13:53:28.723Z,3.17
2022-12-01T13:56:00.839Z,3.18
2022-12-01T13:58:44.825Z,3.11
2022-12-01T14:01:43.406Z,3.10
2022-12-01T14:04:31.816Z,3.05
2022-12-01T14:07:33.377Z,3.02
2022-12-01T14:10:25.599Z,3.06
2022-12-01T14:12:54.782Z,3.05
2022-12-01T14:15:30.376Z,3.05
2022-12-01T14:18:03.834Z,3.06
2022-12-01T14:20:33.923Z,3.07
2022-12-01T14:23:17.103Z,3.06
2022-12-01T14:25:58.401Z,3.03
2022-12-01T14:28:58.177Z,2.99
2022-12-01T14:32:05.854Z,2.93
2022-12-01T14:34:33.884Z,2.92
2022-12-01T14:37:05.905Z,2.89
2022-12-01T14:39:34.733Z,2.89
2022-12-01T14:42:03.964Z,2.87
2022-12-01T14:44:36.246Z,2.87
2022-12-01T14:47:12.462Z,2.82
2022-12-01T14:49:43.583Z,2.83
2022-12-01T14:52:19.151Z,2.76
2022-12-01T14:54:49.615Z,2.74
2022-12-01T14:57:21.808Z,2.72
2022-12-01T15:00:02.202Z,2.71
2022-12-01T15:02:30.705Z,2.70
2022-12-01T15:05:09.441Z,2.70
2022-12-01T15:07:38.121Z,2.66
2022-12-01T15:10:05.985Z,2.63
2022-12-01T15:12:32.939Z,2.60
2022-12-01T15:14:59.550Z,2.56
2022-12-01T15:17:30.945Z,2.54
2022-12-01T15:19:57.874Z,2.49
2022-12-01T15:22:29.270Z,2.46
2022-12-01T15:25:04.897Z,2.44
2022-12-01T15:27:32.760Z,2.41
2022-12-01T15:30:01.290Z,2.34
2022-12-01T15:32:30.798Z,2.32
2022-12-01T15:34:59.068Z,2.30
2022-12-01T15:37:27.748Z,2.30
2022-12-01T15:40:10.080Z,2.27
2022-12-01T15:42:44.744Z,2.26
2022-12-01T15:45:18.946Z,2.26
2022-12-01T15:47:48.698Z,2.25
2022-12-01T15:50:27.579Z,2.22
2022-12-01T15:52:54.428Z,2.20
2022-12-01T15:55:25.648Z,2.20
2022-12-01T15:57:52.562Z,2.19
2022-12-01T16:00:20.007Z,2.16
2022-12-01T16:02:52.306Z,2.15
2022-12-01T16:05:22.455Z,2.13
2022-12-01T16:10:37.169Z,2.10
2022-12-01T16:13:35.199Z,2.08
2022-12-01T16:16:19.291Z,2.07
2022-12-01T16:18:55.091Z,2.07
2022-12-01T16:21:22.097Z,2.06
2022-12-01T16:23:49.021Z,2.01
2022-12-01T16:26:15.775Z,1.99
2022-12-01T16:28:42.347Z,2.01
2022-12-01T16:31:18.600Z,1.98
2022-12-01T16:33:45.771Z,1.98
2022-12-01T16:36:13.659Z,1.96
2022-12-01T16:38:40.506Z,1.94
2022-12-01T16:41:15.699Z,1.94
2022-12-01T16:43:59.119Z,1.93
2022-12-01T16:46:29.046Z,1.95
2022-12-01T16:48:55.649Z,1.93
2022-12-01T16:51:30.046Z,1.93
2022-12-01T16:54:09.341Z,1.96
2022-12-01T16:56:36.134Z,1.96
2022-12-01T16:59:02.784Z,1.94
2022-12-01T17:01:29.662Z,1.93
2022-12-01T17:03:56.658Z,1.90
2022-12-01T17:06:24.517Z,1.89
2022-12-01T17:08:51.313Z,1.89
2022-12-01T17:11:17.991Z,1.89
2022-12-01T17:13:44.556Z,1.87
2022-12-01T17:16:16.756Z,1.89
2022-12-01T17:18:44.835Z,1.87
2022-12-01T17:21:11.634Z,1.85
2022-12-01T17:23:39.720Z,1.85
2022-12-01T17:26:08.893Z,1.84
2022-12-01T17:28:35.814Z,1.87
2022-12-01T17:31:03.724Z,1.83
2022-12-01T17:33:31.865Z,1.83
2022-12-01T17:36:03.676Z,1.82
2022-12-01T17:38:30.350Z,1.82
2022-12-01T17:41:05.731Z,1.80
2022-12-01T17:43:33.166Z,1.80
2022-12-01T17:46:00.206Z,1.79
2022-12-01T17:48:26.953Z,1.78
2022-12-01T17:50:53.513Z,1.77
2022-12-01T17:53:20.125Z,1.77
2022-12-01T17:55:46.700Z,1.76
2022-12-01T17:58:14.668Z,1.75
2022-12-01T18:00:41.237Z,1.69
2022-12-01T18:03:07.997Z,1.69
2022-12-01T18:05:34.820Z,1.68
2022-12-01T18:08:01.425Z,1.68
2022-12-01T18:10:28.117Z,1.64
2022-12-01T18:12:54.639Z,1.61
2022-12-01T18:15:22.630Z,1.62
2022-12-01T18:17:49.204Z,1.60
2022-12-01T18:20:19.190Z,1.60
2022-12-01T18:22:46.021Z,1.58
2022-12-01T18:25:13.050Z,1.57
2022-12-01T18:27:39.596Z,1.54
2022-12-01T18:30:07.460Z,1.52
2022-12-01T18:32:35.312Z,1.48
2022-12-01T18:35:02.022Z,1.44
2022-12-01T18:37:28.624Z,1.43
2022-12-01T18:39:55.563Z,1.40
2022-12-01T18:42:22.163Z,1.37
2022-12-01T18:44:49.033Z,1.35
2022-12-01T18:47:15.757Z,1.34
2022-12-01T18:49:43.842Z,1.31
2022-12-01T18:52:10.485Z,1.28
2022-12-01T18:54:37.182Z,1.24
2022-12-01T18:57:03.835Z,1.23
2022-12-01T18:59:30.397Z,1.21
2022-12-01T19:01:57.059Z,1.19
2022-12-01T19:04:23.711Z,1.15
2022-12-01T19:06:51.679Z,1.15
2022-12-01T19:09:18.339Z,1.12
2022-12-01T19:11:44.971Z,1.09
2022-12-01T19:14:15.637Z,1.09
2022-12-01T19:16:42.735Z,1.04
2022-12-01T19:19:10.038Z,1.02
2022-12-01T19:21:36.565Z,1.00
2022-12-01T19:24:05.007Z,0.97
2022-12-01T19:26:31.555Z,0.94
2022-12-01T19:28:58.341Z,0.93
2022-12-01T19:31:25.001Z,0.93
2022-12-01T19:33:52.308Z,0.91
2022-12-01T19:36:22.286Z,0.90
2022-12-01T19:38:50.689Z,0.92
2022-12-01T19:41:21.188Z,0.90
2022-12-01T19:43:49.814Z,0.89
2022-12-01T19:46:20.543Z,0.87
2022-12-01T19:48:53.576Z,0.85
2022-12-01T19:51:24.375Z,0.85
2022-12-01T19:53:51.544Z,0.85
2022-12-01T19:56:19.658Z,0.84
2022-12-01T19:58:46.411Z,0.82
2022-12-01T20:01:14.642Z,0.81
2022-12-01T20:03:42.232Z,0.76
2022-12-01T20:06:10.465Z,0.75
2022-12-01T20:08:37.141Z,0.74
2022-12-01T20:11:04.561Z,0.72
2022-12-01T20:13:33.413Z,0.73
2022-12-01T20:16:04.177Z,0.70
2022-12-01T20:18:30.920Z,0.68
2022-12-01T20:21:05.747Z,0.69
2022-12-01T20:23:32.533Z,0.68
2022-12-01T20:26:00.356Z,0.68
2022-12-01T20:28:27.006Z,0.65
2022-12-01T20:30:57.924Z,0.64
2022-12-01T20:33:25.530Z,0.65
2022-12-01T20:35:52.475Z,0.65
2022-12-01T20:38:24.281Z,0.63
2022-12-01T20:40:53.784Z,0.63
2022-12-01T20:43:20.382Z,0.65
2022-12-01T20:45:47.073Z,0.65
2022-12-01T20:48:15.487Z,0.64
2022-12-01T20:50:42.076Z,0.63
2022-12-01T20:53:09.660Z,0.61
2022-12-01T20:55:36.564Z,0.63
2022-12-01T20:58:04.049Z,0.62
2022-12-01T21:00:31.185Z,0.60
2022-12-01T21:02:57.853Z,0.59
2022-12-01T21:05:26.722Z,0.61
2022-12-01T21:07:54.093Z,0.61
2022-12-01T21:10:21.170Z,0.61
2022-12-01T21:12:51.863Z,0.59
2022-12-01T21:15:25.091Z,0.60
2022-12-01T21:17:56.177Z,0.59
2022-12-01T21:20:30.320Z,0.59
2022-12-01T21:23:01.591Z,0.60
2022-12-01T21:25:28.255Z,0.61
2022-12-01T21:27:57.862Z,0.59
2022-12-01T21:30:24.814Z,0.55
2022-12-01T21:32:52.808Z,0.57
2022-12-01T21:35:22.731Z,0.57
2022-12-01T21:37:54.602Z,0.55
2022-12-01T21:40:23.144Z,0.55
2022-12-01T21:42:50.538Z,0.55
2022-12-01T21:45:22.072Z,0.54
2022-12-01T21:47:48.664Z,0.56
2022-12-01T21:50:19.453Z,0.53
2022-12-01T21:52:46.798Z,0.53
2022-12-01T21:55:35.726Z,0.53
2022-12-01T21:58:02.410Z,0.55
2022-12-01T22:00:31.103Z,0.54
2022-12-01T22:03:05.470Z,0.55
2022-12-01T22:05:37.634Z,0.52
2022-12-01T22:08:15.716Z,0.52
2022-12-01T22:11:01.499Z,0.52
2022-12-01T22:13:38.324Z,0.52
2022-12-01T22:16:05.196Z,0.51
2022-12-01T22:18:36.292Z,0.52
2022-12-01T22:21:33.105Z,0.51
2022-12-01T22:24:14.407Z,0.52
2022-12-01T22:26:45.992Z,0.53
2022-12-01T22:29:24.690Z,0.52
2022-12-01T22:31:51.933Z,0.49
2022-12-01T22:34:20.093Z,0.49
2022-12-01T22:36:46.855Z,0.51
2022-12-01T22:39:28.818Z,0.51
2022-12-01T22:42:00.198Z,0.49
2022-12-01T22:44:30.083Z,0.49
2022-12-01T22:47:00.412Z,0.50
2022-12-01T22:49:26.998Z,0.47
2022-12-01T22:51:59.721Z,0.46
2022-12-01T22:54:34.800Z,0.47
2022-12-01T22:57:28.602Z,0.42
2022-12-01T22:59:55.534Z,0.42
2022-12-01T23:02:24.468Z,0.42
2022-12-01T23:04:54.982Z,0.43
2022-12-01T23:07:31.153Z,0.43
2022-12-01T23:10:05.334Z,0.41
2022-12-01T23:12:34.855Z,0.41
2022-12-01T23:15:22.379Z,0.40
2022-12-01T23:17:49.620Z,0.38
2022-12-01T23:20:30.705Z,0.37
2022-12-01T23:23:00.402Z,0.38
2022-12-01T23:25:27.931Z,0.36
2022-12-01T23:27:59.213Z,0.37
2022-12-01T23:30:26.488Z,0.36
2022-12-01T23:33:02.786Z,0.36
2022-12-01T23:35:29.592Z,0.35
2022-12-01T23:37:56.241Z,0.34
2022-12-01T23:40:29.959Z,0.33
2022-12-01T23:43:10.007Z,0.34
2022-12-01T23:45:36.955Z,0.32
2022-12-01T23:48:10.824Z,0.31
2022-12-01T23:50:37.799Z,0.31
2022-12-01T23:53:04.471Z,0.30
2022-12-01T23:55:31.658Z,0.31
2022-12-01T23:57:59.618Z,0.31
